sensor_id;sensor_type;location;lat;lon;timestamp;temperature;humidity
19567;DHT22;9930;49.240;8.548;2022-12-18T00:00:09;-4.30;80.40
19567;DHT22;9930;49.240;8.548;2022-12-18T00:02:39;-4.30;80.40
19567;DHT22;9930;49.240;8.548;2022-12-18T00:05:09;-4.30;80.60
19567;DHT22;9930;49.240;8.548;2022-12-18T00:07:39;-4.20;80.60
19567;DHT22;9930;49.240;8.548;2022-12-18T00:10:10;-4.20;80.50
19567;DHT22;9930;49.240;8.548;2022-12-18T00:12:43;-4.30;80.60
19567;DHT22;9930;49.240;8.548;2022-12-18T00:15:14;-4.30;80.70
19567;DHT22;9930;49.240;8.548;2022-12-18T00:17:40;-4.20;80.70
19567;DHT22;9930;49.240;8.548;2022-12-18T00:20:09;-4.20;80.60
19567;DHT22;9930;49.240;8.548;2022-12-18T00:22:39;-4.20;80.70
19567;DHT22;9930;49.240;8.548;2022-12-18T00:25:06;-4.20;80.80
19567;DHT22;9930;49.240;8.548;2022-12-18T00:27:36;-4.20;80.70
19567;DHT22;9930;49.240;8.548;2022-12-18T00:30:07;-4.20;80.70
19567;DHT22;9930;49.240;8.548;2022-12-18T00:32:42;-4.20;80.70
19567;DHT22;9930;49.240;8.548;2022-12-18T00:35:13;-4.10;80.80
19567;DHT22;9930;49.240;8.548;2022-12-18T00:37:39;-4.10;80.90
19567;DHT22;9930;49.240;8.548;2022-12-18T00:40:15;-4.10;80.70
19567;DHT22;9930;49.240;8.548;2022-12-18T00:42:41;-4.10;80.80
19567;DHT22;9930;49.240;8.548;2022-12-18T00:45:30;-4.10;80.60
19567;DHT22;9930;49.240;8.548;2022-12-18T00:47:56;-4.10;80.60
19567;DHT22;9930;49.240;8.548;2022-12-18T00:50:24;-4.10;80.70
19567;DHT22;9930;49.240;8.548;2022-12-18T00:52:51;-4.10;80.90
19567;DHT22;9930;49.240;8.548;2022-12-18T00:55:18;-4.10;80.90
19567;DHT22;9930;49.240;8.548;2022-12-18T00:57:44;-4.10;80.80
19567;DHT22;9930;49.240;8.548;2022-12-18T01:00:12;-4.00;81.00
19567;DHT22;9930;49.240;8.548;2022-12-18T01:02:40;-4.00;81.70
19567;DHT22;9930;49.240;8.548;2022-12-18T01:05:09;-4.00;80.90
19567;DHT22;9930;49.240;8.548;2022-12-18T01:07:39;-4.00;80.70
19567;DHT22;9930;49.240;8.548;2022-12-18T01:10:12;-4.00;80.70
19567;DHT22;9930;49.240;8.548;2022-12-18T01:12:43;-4.00;80.70
19567;DHT22;9930;49.240;8.548;2022-12-18T01:15:13;-4.00;80.50
19567;DHT22;9930;49.240;8.548;2022-12-18T01:17:40;-4.00;80.50
19567;DHT22;9930;49.240;8.548;2022-12-18T01:20:14;-4.00;80.50
19567;DHT22;9930;49.240;8.548;2022-12-18T01:22:42;-4.10;80.60
19567;DHT22;9930;49.240;8.548;2022-12-18T01:25:12;-4.10;80.60
19567;DHT22;9930;49.240;8.548;2022-12-18T01:27:40;-4.00;80.60
19567;DHT22;9930;49.240;8.548;2022-12-18T01:30:10;-4.10;80.60
19567;DHT22;9930;49.240;8.548;2022-12-18T01:32:40;-4.10;80.60
19567;DHT22;9930;49.240;8.548;2022-12-18T01:35:09;-4.10;80.60
19567;DHT22;9930;49.240;8.548;2022-12-18T01:37:43;-4.10;80.60
19567;DHT22;9930;49.240;8.548;2022-12-18T01:40:10;-4.10;80.50
19567;DHT22;9930;49.240;8.548;2022-12-18T01:42:42;-4.10;80.40
19567;DHT22;9930;49.240;8.548;2022-12-18T01:47:43;-4.20;80.40
19567;DHT22;9930;49.240;8.548;2022-12-18T01:53:11;-4.20;80.30
19567;DHT22;9930;49.240;8.548;2022-12-18T01:55:58;-4.20;80.50
19567;DHT22;9930;49.240;8.548;2022-12-18T01:58:41;-4.20;80.50
19567;DHT22;9930;49.240;8.548;2022-12-18T02:01:09;-4.30;80.70
19567;DHT22;9930;49.240;8.548;2022-12-18T02:03:42;-4.20;80.70
19567;DHT22;9930;49.240;8.548;2022-12-18T02:06:19;-4.30;80.50
19567;DHT22;9930;49.240;8.548;2022-12-18T02:11:32;-4.30;80.70
19567;DHT22;9930;49.240;8.548;2022-12-18T02:14:43;-4.30;80.70
19567;DHT22;9930;49.240;8.548;2022-12-18T02:17:21;-4.30;80.70
19567;DHT22;9930;49.240;8.548;2022-12-18T02:20:05;-4.30;80.60
19567;DHT22;9930;49.240;8.548;2022-12-18T02:23:20;-4.30;80.40
19567;DHT22;9930;49.240;8.548;2022-12-18T02:26:26;-4.40;80.30
19567;DHT22;9930;49.240;8.548;2022-12-18T02:29:08;-4.40;80.40
19567;DHT22;9930;49.240;8.548;2022-12-18T02:31:46;-4.30;80.40
19567;DHT22;9930;49.240;8.548;2022-12-18T02:34:23;-4.50;80.60
19567;DHT22;9930;49.240;8.548;2022-12-18T02:36:54;-4.40;80.50
19567;DHT22;9930;49.240;8.548;2022-12-18T02:39:26;-4.40;80.60
19567;DHT22;9930;49.240;8.548;2022-12-18T02:41:54;-4.50;80.60
19567;DHT22;9930;49.240;8.548;2022-12-18T02:44:21;-4.50;80.50
19567;DHT22;9930;49.240;8.548;2022-12-18T02:46:51;-4.50;80.50
19567;DHT22;9930;49.240;8.548;2022-12-18T02:53:01;-4.50;80.40
19567;DHT22;9930;49.240;8.548;2022-12-18T02:56:21;-4.50;80.60
19567;DHT22;9930;49.240;8.548;2022-12-18T02:59:04;-4.50;80.80
19567;DHT22;9930;49.240;8.548;2022-12-18T03:07:42;-4.60;80.90
19567;DHT22;9930;49.240;8.548;2022-12-18T03:10:16;-4.50;80.90
19567;DHT22;9930;49.240;8.548;2022-12-18T03:12:54;-4.60;80.90
19567;DHT22;9930;49.240;8.548;2022-12-18T03:15:42;-4.60;80.80
19567;DHT22;9930;49.240;8.548;2022-12-18T03:18:17;-4.60;80.80
19567;DHT22;9930;49.240;8.548;2022-12-18T03:20:49;-4.50;80.90
19567;DHT22;9930;49.240;8.548;2022-12-18T03:23:23;-4.60;80.90
19567;DHT22;9930;49.240;8.548;2022-12-18T03:25:56;-4.50;80.90
19567;DHT22;9930;49.240;8.548;2022-12-18T03:28:27;-4.60;80.70
19567;DHT22;9930;49.240;8.548;2022-12-18T03:31:00;-4.60;81.50
19567;DHT22;9930;49.240;8.548;2022-12-18T03:33:34;-4.60;80.80
19567;DHT22;9930;49.240;8.548;2022-12-18T03:36:10;-4.60;80.60
19567;DHT22;9930;49.240;8.548;2022-12-18T03:38:39;-4.60;80.70
19567;DHT22;9930;49.240;8.548;2022-12-18T03:41:23;-4.60;80.80
19567;DHT22;9930;49.240;8.548;2022-12-18T03:50:13;-4.70;80.50
19567;DHT22;9930;49.240;8.548;2022-12-18T03:52:54;-4.70;80.50
19567;DHT22;9930;49.240;8.548;2022-12-18T03:55:31;-4.70;80.50
19567;DHT22;9930;49.240;8.548;2022-12-18T03:58:01;-4.70;80.50
19567;DHT22;9930;49.240;8.548;2022-12-18T04:00:29;-4.80;80.50
19567;DHT22;9930;49.240;8.548;2022-12-18T04:02:57;-4.80;80.70
19567;DHT22;9930;49.240;8.548;2022-12-18T04:05:27;-4.70;80.60
19567;DHT22;9930;49.240;8.548;2022-12-18T04:08:00;-4.80;80.60
19567;DHT22;9930;49.240;8.548;2022-12-18T04:10:29;-4.80;80.70
19567;DHT22;9930;49.240;8.548;2022-12-18T04:12:56;-4.80;80.70
19567;DHT22;9930;49.240;8.548;2022-12-18T04:15:23;-4.80;80.50
19567;DHT22;9930;49.240;8.548;2022-12-18T04:17:50;-4.80;80.40
19567;DHT22;9930;49.240;8.548;2022-12-18T04:20:16;-4.80;80.20
19567;DHT22;9930;49.240;8.548;2022-12-18T04:22:50;-4.90;80.10
19567;DHT22;9930;49.240;8.548;2022-12-18T04:25:18;-4.90;80.30
19567;DHT22;9930;49.240;8.548;2022-12-18T04:27:44;-4.90;80.30
19567;DHT22;9930;49.240;8.548;2022-12-18T04:30:10;-4.90;80.40
19567;DHT22;9930;49.240;8.548;2022-12-18T04:32:42;-4.90;80.50
19567;DHT22;9930;49.240;8.548;2022-12-18T04:35:10;-4.90;80.60
19567;DHT22;9930;49.240;8.548;2022-12-18T04:37:40;-4.90;80.50
19567;DHT22;9930;49.240;8.548;2022-12-18T04:40:10;-4.90;80.50
19567;DHT22;9930;49.240;8.548;2022-12-18T04:42:42;-5.00;80.50
19567;DHT22;9930;49.240;8.548;2022-12-18T04:45:11;-5.00;80.40
19567;DHT22;9930;49.240;8.548;2022-12-18T04:47:40;-4.90;80.50
19567;DHT22;9930;49.240;8.548;2022-12-18T04:50:10;-5.00;80.50
19567;DHT22;9930;49.240;8.548;2022-12-18T04:52:40;-5.00;80.50
19567;DHT22;9930;49.240;8.548;2022-12-18T04:55:10;-5.00;80.60
19567;DHT22;9930;49.240;8.548;2022-12-18T04:57:43;-5.00;80.70
19567;DHT22;9930;49.240;8.548;2022-12-18T05:00:11;-5.00;80.70
19567;DHT22;9930;49.240;8.548;2022-12-18T05:02:40;-5.00;80.60
19567;DHT22;9930;49.240;8.548;2022-12-18T05:05:09;-5.00;80.70
19567;DHT22;9930;49.240;8.548;2022-12-18T05:07:40;-4.90;80.80
19567;DHT22;9930;49.240;8.548;2022-12-18T05:10:10;-5.00;81.40
19567;DHT22;9930;49.240;8.548;2022-12-18T05:12:40;-4.90;80.80
19567;DHT22;9930;49.240;8.548;2022-12-18T05:15:24;-4.90;80.80
19567;DHT22;9930;49.240;8.548;2022-12-18T05:17:52;-4.90;80.80
19567;DHT22;9930;49.240;8.548;2022-12-18T05:20:20;-4.90;80.90
19567;DHT22;9930;49.240;8.548;2022-12-18T05:22:48;-4.90;81.00
19567;DHT22;9930;49.240;8.548;2022-12-18T05:25:15;-4.90;80.90
19567;DHT22;9930;49.240;8.548;2022-12-18T05:27:44;-4.80;81.00
19567;DHT22;9930;49.240;8.548;2022-12-18T05:30:11;-4.80;81.00
19567;DHT22;9930;49.240;8.548;2022-12-18T05:32:41;-4.80;81.00
19567;DHT22;9930;49.240;8.548;2022-12-18T05:35:12;-4.80;81.00
19567;DHT22;9930;49.240;8.548;2022-12-18T05:37:42;-4.70;81.20
19567;DHT22;9930;49.240;8.548;2022-12-18T05:40:11;-4.70;81.30
19567;DHT22;9930;49.240;8.548;2022-12-18T05:42:40;-4.70;81.30
19567;DHT22;9930;49.240;8.548;2022-12-18T05:45:10;-4.60;81.50
19567;DHT22;9930;49.240;8.548;2022-12-18T05:47:39;-4.60;82.30
19567;DHT22;9930;49.240;8.548;2022-12-18T05:50:10;-4.60;81.60
19567;DHT22;9930;49.240;8.548;2022-12-18T05:52:39;-4.50;81.50
19567;DHT22;9930;49.240;8.548;2022-12-18T05:55:10;-4.50;81.40
19567;DHT22;9930;49.240;8.548;2022-12-18T05:57:39;-4.40;81.60
19567;DHT22;9930;49.240;8.548;2022-12-18T06:00:06;-4.40;81.40
19567;DHT22;9930;49.240;8.548;2022-12-18T06:02:40;-4.40;81.40
19567;DHT22;9930;49.240;8.548;2022-12-18T06:05:08;-4.30;81.30
19567;DHT22;9930;49.240;8.548;2022-12-18T06:07:38;-4.30;81.50
19567;DHT22;9930;49.240;8.548;2022-12-18T06:10:06;-4.30;81.70
19567;DHT22;9930;49.240;8.548;2022-12-18T06:12:41;-4.20;81.60
19567;DHT22;9930;49.240;8.548;2022-12-18T06:15:08;-4.20;81.80
19567;DHT22;9930;49.240;8.548;2022-12-18T06:17:34;-4.20;82.00
19567;DHT22;9930;49.240;8.548;2022-12-18T06:20:03;-4.10;82.00
19567;DHT22;9930;49.240;8.548;2022-12-18T06:22:32;-4.10;81.70
19567;DHT22;9930;49.240;8.548;2022-12-18T06:24:57;-4.10;81.60
19567;DHT22;9930;49.240;8.548;2022-12-18T06:27:27;-4.10;81.70
19567;DHT22;9930;49.240;8.548;2022-12-18T06:29:53;-4.10;81.70
19567;DHT22;9930;49.240;8.548;2022-12-18T06:32:18;-4.10;81.70
19567;DHT22;9930;49.240;8.548;2022-12-18T06:34:44;-4.00;81.70
19567;DHT22;9930;49.240;8.548;2022-12-18T06:37:10;-4.00;81.60
19567;DHT22;9930;49.240;8.548;2022-12-18T06:39:39;-4.00;81.50
19567;DHT22;9930;49.240;8.548;2022-12-18T06:42:10;-4.00;81.30
19567;DHT22;9930;49.240;8.548;2022-12-18T06:44:44;-4.00;81.20
19567;DHT22;9930;49.240;8.548;2022-12-18T06:47:13;-4.00;81.40
19567;DHT22;9930;49.240;8.548;2022-12-18T06:49:41;-4.00;81.30
19567;DHT22;9930;49.240;8.548;2022-12-18T06:52:10;-4.00;81.30
19567;DHT22;9930;49.240;8.548;2022-12-18T06:54:40;-4.00;81.30
19567;DHT22;9930;49.240;8.548;2022-12-18T06:57:10;-4.00;81.20
19567;DHT22;9930;49.240;8.548;2022-12-18T06:59:40;-4.10;81.20
19567;DHT22;9930;49.240;8.548;2022-12-18T07:02:11;-4.10;81.30
19567;DHT22;9930;49.240;8.548;2022-12-18T07:04:39;-4.10;81.30
19567;DHT22;9930;49.240;8.548;2022-12-18T07:07:12;-4.10;81.30
19567;DHT22;9930;49.240;8.548;2022-12-18T07:09:40;-4.10;81.30
19567;DHT22;9930;49.240;8.548;2022-12-18T07:12:09;-4.10;81.40
19567;DHT22;9930;49.240;8.548;2022-12-18T07:14:38;-4.10;81.40
19567;DHT22;9930;49.240;8.548;2022-12-18T07:17:05;-4.10;81.20
19567;DHT22;9930;49.240;8.548;2022-12-18T07:19:32;-4.10;81.30
19567;DHT22;9930;49.240;8.548;2022-12-18T07:21:58;-4.10;81.30
19567;DHT22;9930;49.240;8.548;2022-12-18T07:24:24;-4.10;81.30
19567;DHT22;9930;49.240;8.548;2022-12-18T07:26:52;-4.10;81.30
19567;DHT22;9930;49.240;8.548;2022-12-18T07:29:18;-4.10;81.30
19567;DHT22;9930;49.240;8.548;2022-12-18T07:31:46;-4.10;81.40
19567;DHT22;9930;49.240;8.548;2022-12-18T07:34:15;-4.20;81.30
19567;DHT22;9930;49.240;8.548;2022-12-18T07:36:40;-4.20;81.40
19567;DHT22;9930;49.240;8.548;2022-12-18T07:39:10;-4.20;81.30
19567;DHT22;9930;49.240;8.548;2022-12-18T07:41:41;-4.10;81.40
19567;DHT22;9930;49.240;8.548;2022-12-18T07:44:30;-4.10;81.50
19567;DHT22;9930;49.240;8.548;2022-12-18T07:46:57;-4.10;81.60
19567;DHT22;9930;49.240;8.548;2022-12-18T07:49:23;-4.10;81.60
19567;DHT22;9930;49.240;8.548;2022-12-18T07:51:49;-4.10;81.60
19567;DHT22;9930;49.240;8.548;2022-12-18T07:54:21;-4.10;81.60
19567;DHT22;9930;49.240;8.548;2022-12-18T07:56:50;-4.10;81.70
19567;DHT22;9930;49.240;8.548;2022-12-18T07:59:19;-4.10;81.60
19567;DHT22;9930;49.240;8.548;2022-12-18T08:01:44;-4.00;81.70
19567;DHT22;9930;49.240;8.548;2022-12-18T08:04:10;-4.00;81.70
19567;DHT22;9930;49.240;8.548;2022-12-18T08:06:39;-4.00;81.70
19567;DHT22;9930;49.240;8.548;2022-12-18T08:09:05;-4.00;81.70
19567;DHT22;9930;49.240;8.548;2022-12-18T08:11:35;-4.00;81.60
19567;DHT22;9930;49.240;8.548;2022-12-18T08:14:03;-3.90;81.80
19567;DHT22;9930;49.240;8.548;2022-12-18T08:16:29;-4.00;81.80
19567;DHT22;9930;49.240;8.548;2022-12-18T08:18:57;-3.90;81.90
19567;DHT22;9930;49.240;8.548;2022-12-18T08:21:28;-3.90;81.90
19567;DHT22;9930;49.240;8.548;2022-12-18T08:23:57;-3.90;81.80
19567;DHT22;9930;49.240;8.548;2022-12-18T08:26:26;-3.90;81.70
19567;DHT22;9930;49.240;8.548;2022-12-18T08:28:55;-3.90;81.90
19567;DHT22;9930;49.240;8.548;2022-12-18T08:31:24;-3.80;81.90
19567;DHT22;9930;49.240;8.548;2022-12-18T08:33:57;-3.80;82.00
19567;DHT22;9930;49.240;8.548;2022-12-18T08:36:23;-3.70;82.10
19567;DHT22;9930;49.240;8.548;2022-12-18T08:38:49;-3.70;82.10
19567;DHT22;9930;49.240;8.548;2022-12-18T08:41:17;-3.70;82.10
19567;DHT22;9930;49.240;8.548;2022-12-18T08:43:48;-3.60;82.10
19567;DHT22;9930;49.240;8.548;2022-12-18T08:46:40;-3.60;82.10
19567;DHT22;9930;49.240;8.548;2022-12-18T08:49:09;-3.50;82.20
19567;DHT22;9930;49.240;8.548;2022-12-18T08:51:38;-3.50;82.20
19567;DHT22;9930;49.240;8.548;2022-12-18T08:54:11;-3.40;82.30
19567;DHT22;9930;49.240;8.548;2022-12-18T08:56:39;-3.40;82.30
19567;DHT22;9930;49.240;8.548;2022-12-18T08:59:08;-3.30;82.40
19567;DHT22;9930;49.240;8.548;2022-12-18T09:01:39;-3.20;82.40
19567;DHT22;9930;49.240;8.548;2022-12-18T09:04:10;-3.20;82.30
19567;DHT22;9930;49.240;8.548;2022-12-18T09:06:39;-3.20;82.20
19567;DHT22;9930;49.240;8.548;2022-12-18T09:09:10;-3.10;82.30
19567;DHT22;9930;49.240;8.548;2022-12-18T09:11:42;-3.00;82.40
19567;DHT22;9930;49.240;8.548;2022-12-18T09:14:10;-3.00;82.40
19567;DHT22;9930;49.240;8.548;2022-12-18T09:16:37;-2.90;82.50
19567;DHT22;9930;49.240;8.548;2022-12-18T09:19:05;-2.90;82.50
19567;DHT22;9930;49.240;8.548;2022-12-18T09:21:38;-2.80;82.60
19567;DHT22;9930;49.240;8.548;2022-12-18T09:24:12;-2.70;82.70
19567;DHT22;9930;49.240;8.548;2022-12-18T09:26:40;-2.70;82.70
19567;DHT22;9930;49.240;8.548;2022-12-18T09:29:08;-2.60;82.60
19567;DHT22;9930;49.240;8.548;2022-12-18T09:31:37;-2.50;82.60
19567;DHT22;9930;49.240;8.548;2022-12-18T09:34:05;-2.40;82.60
19567;DHT22;9930;49.240;8.548;2022-12-18T09:36:33;-2.40;82.50
19567;DHT22;9930;49.240;8.548;2022-12-18T09:39:02;-2.30;82.60
19567;DHT22;9930;49.240;8.548;2022-12-18T09:49:59;-2.00;82.70
19567;DHT22;9930;49.240;8.548;2022-12-18T09:52:40;-1.90;82.80
19567;DHT22;9930;49.240;8.548;2022-12-18T09:57:56;-1.70;82.80
19567;DHT22;9930;49.240;8.548;2022-12-18T10:00:45;-1.60;82.80
19567;DHT22;9930;49.240;8.548;2022-12-18T10:03:13;-1.50;82.80
19567;DHT22;9930;49.240;8.548;2022-12-18T10:05:59;-1.50;82.50
19567;DHT22;9930;49.240;8.548;2022-12-18T10:14:09;-1.20;82.40
19567;DHT22;9930;49.240;8.548;2022-12-18T10:19:20;-1.10;82.40
19567;DHT22;9930;49.240;8.548;2022-12-18T10:27:51;-0.90;82.10
19567;DHT22;9930;49.240;8.548;2022-12-18T10:30:24;-0.80;82.00
19567;DHT22;9930;49.240;8.548;2022-12-18T10:32:53;-0.70;82.00
19567;DHT22;9930;49.240;8.548;2022-12-18T10:35:24;-0.70;81.80
19567;DHT22;9930;49.240;8.548;2022-12-18T10:40:57;-0.60;81.60
19567;DHT22;9930;49.240;8.548;2022-12-18T10:43:32;-0.50;81.80
19567;DHT22;9930;49.240;8.548;2022-12-18T10:45:59;-0.50;81.80
19567;DHT22;9930;49.240;8.548;2022-12-18T10:48:55;-0.40;82.00
19567;DHT22;9930;49.240;8.548;2022-12-18T10:51:37;-0.30;81.70
19567;DHT22;9930;49.240;8.548;2022-12-18T10:54:34;-0.30;81.70
19567;DHT22;9930;49.240;8.548;2022-12-18T10:57:42;-0.20;81.80
19567;DHT22;9930;49.240;8.548;2022-12-18T11:02:48;0.00;82.20
19567;DHT22;9930;49.240;8.548;2022-12-18T11:05:44;0.10;82.20
19567;DHT22;9930;49.240;8.548;2022-12-18T11:08:20;0.20;81.80
19567;DHT22;9930;49.240;8.548;2022-12-18T11:10:49;0.30;81.80
19567;DHT22;9930;49.240;8.548;2022-12-18T11:13:23;0.40;81.90
19567;DHT22;9930;49.240;8.548;2022-12-18T11:15:51;0.40;81.70
19567;DHT22;9930;49.240;8.548;2022-12-18T11:18:19;0.50;81.60
19567;DHT22;9930;49.240;8.548;2022-12-18T11:20:51;0.60;81.40
19567;DHT22;9930;49.240;8.548;2022-12-18T11:23:21;0.60;82.10
19567;DHT22;9930;49.240;8.548;2022-12-18T11:25:56;0.60;80.90
19567;DHT22;9930;49.240;8.548;2022-12-18T11:28:35;0.70;80.90
19567;DHT22;9930;49.240;8.548;2022-12-18T11:31:23;0.70;81.00
19567;DHT22;9930;49.240;8.548;2022-12-18T11:33:54;0.70;80.60
19567;DHT22;9930;49.240;8.548;2022-12-18T11:36:37;0.80;80.80
19567;DHT22;9930;49.240;8.548;2022-12-18T11:39:44;0.90;80.90
19567;DHT22;9930;49.240;8.548;2022-12-18T11:42:25;0.90;80.60
19567;DHT22;9930;49.240;8.548;2022-12-18T11:51:15;0.90;80.10
19567;DHT22;9930;49.240;8.548;2022-12-18T11:53:53;1.00;80.30
19567;DHT22;9930;49.240;8.548;2022-12-18T12:04:43;1.00;80.30
19567;DHT22;9930;49.240;8.548;2022-12-18T12:16:23;1.00;79.70
19567;DHT22;9930;49.240;8.548;2022-12-18T12:22:24;1.00;79.90
19567;DHT22;9930;49.240;8.548;2022-12-18T12:25:05;1.10;79.80
19567;DHT22;9930;49.240;8.548;2022-12-18T12:31:31;1.10;80.10
19567;DHT22;9930;49.240;8.548;2022-12-18T12:39:46;1.20;80.10
19567;DHT22;9930;49.240;8.548;2022-12-18T12:45:16;1.20;79.80
19567;DHT22;9930;49.240;8.548;2022-12-18T12:47:49;1.20;79.80
19567;DHT22;9930;49.240;8.548;2022-12-18T12:50:20;1.20;79.90
19567;DHT22;9930;49.240;8.548;2022-12-18T12:52:57;1.20;79.80
19567;DHT22;9930;49.240;8.548;2022-12-18T12:55:26;1.30;79.70
19567;DHT22;9930;49.240;8.548;2022-12-18T13:06:43;1.40;79.90
19567;DHT22;9930;49.240;8.548;2022-12-18T13:09:33;1.40;79.40
19567;DHT22;9930;49.240;8.548;2022-12-18T13:12:04;1.40;79.70
19567;DHT22;9930;49.240;8.548;2022-12-18T13:15:19;1.40;79.70
19567;DHT22;9930;49.240;8.548;2022-12-18T13:17:47;1.40;79.50
19567;DHT22;9930;49.240;8.548;2022-12-18T13:20:14;1.50;79.70
19567;DHT22;9930;49.240;8.548;2022-12-18T13:22:46;1.50;79.60
19567;DHT22;9930;49.240;8.548;2022-12-18T13:25:34;1.50;79.50
19567;DHT22;9930;49.240;8.548;2022-12-18T13:28:11;1.50;79.00
19567;DHT22;9930;49.240;8.548;2022-12-18T13:35:52;1.50;79.30
19567;DHT22;9930;49.240;8.548;2022-12-18T13:38:52;1.50;79.10
19567;DHT22;9930;49.240;8.548;2022-12-18T13:41:39;1.50;79.20
19567;DHT22;9930;49.240;8.548;2022-12-18T13:44:22;1.50;79.10
19567;DHT22;9930;49.240;8.548;2022-12-18T13:46:52;1.50;79.00
19567;DHT22;9930;49.240;8.548;2022-12-18T13:49:40;1.50;79.00
19567;DHT22;9930;49.240;8.548;2022-12-18T13:52:26;1.50;78.90
19567;DHT22;9930;49.240;8.548;2022-12-18T13:55:00;1.50;78.70
19567;DHT22;9930;49.240;8.548;2022-12-18T13:57:37;1.50;78.90
19567;DHT22;9930;49.240;8.548;2022-12-18T14:00:24;1.40;78.70
19567;DHT22;9930;49.240;8.548;2022-12-18T14:02:53;1.40;78.70
19567;DHT22;9930;49.240;8.548;2022-12-18T14:05:24;1.40;78.90
19567;DHT22;9930;49.240;8.548;2022-12-18T14:07:59;1.40;78.90
19567;DHT22;9930;49.240;8.548;2022-12-18T14:10:27;1.30;78.90
19567;DHT22;9930;49.240;8.548;2022-12-18T14:12:53;1.30;78.90
19567;DHT22;9930;49.240;8.548;2022-12-18T14:20:50;1.20;78.70
19567;DHT22;9930;49.240;8.548;2022-12-18T14:26:30;1.20;78.80
19567;DHT22;9930;49.240;8.548;2022-12-18T14:29:00;1.20;78.80
19567;DHT22;9930;49.240;8.548;2022-12-18T14:31:45;1.20;79.00
19567;DHT22;9930;49.240;8.548;2022-12-18T14:34:17;1.10;79.10
19567;DHT22;9930;49.240;8.548;2022-12-18T14:36:53;1.10;79.00
19567;DHT22;9930;49.240;8.548;2022-12-18T14:39:21;1.10;78.90
19567;DHT22;9930;49.240;8.548;2022-12-18T14:41:49;1.10;78.90
19567;DHT22;9930;49.240;8.548;2022-12-18T14:44:15;1.10;78.90
19567;DHT22;9930;49.240;8.548;2022-12-18T14:46:46;1.00;78.90
19567;DHT22;9930;49.240;8.548;2022-12-18T14:49:30;1.00;78.90
19567;DHT22;9930;49.240;8.548;2022-12-18T14:51:59;1.00;78.80
19567;DHT22;9930;49.240;8.548;2022-12-18T14:54:29;1.00;78.90
19567;DHT22;9930;49.240;8.548;2022-12-18T14:57:05;0.90;78.80
19567;DHT22;9930;49.240;8.548;2022-12-18T14:59:40;0.90;78.80
19567;DHT22;9930;49.240;8.548;2022-12-18T15:02:23;0.90;78.80
19567;DHT22;9930;49.240;8.548;2022-12-18T15:07:51;0.80;78.70
19567;DHT22;9930;49.240;8.548;2022-12-18T15:10:19;0.70;78.70
19567;DHT22;9930;49.240;8.548;2022-12-18T15:12:49;0.70;78.70
19567;DHT22;9930;49.240;8.548;2022-12-18T15:23:28;0.50;78.70
19567;DHT22;9930;49.240;8.548;2022-12-18T15:26:09;0.50;78.80
19567;DHT22;9930;49.240;8.548;2022-12-18T15:28:51;0.50;78.80
19567;DHT22;9930;49.240;8.548;2022-12-18T15:31:34;0.40;78.80
19567;DHT22;9930;49.240;8.548;2022-12-18T15:36:40;0.40;78.90
19567;DHT22;9930;49.240;8.548;2022-12-18T15:39:14;0.30;78.90
19567;DHT22;9930;49.240;8.548;2022-12-18T15:41:40;0.30;79.00
19567;DHT22;9930;49.240;8.548;2022-12-18T15:44:26;0.30;79.00
19567;DHT22;9930;49.240;8.548;2022-12-18T15:46:55;0.20;79.00
19567;DHT22;9930;49.240;8.548;2022-12-18T15:49:20;0.20;79.00
19567;DHT22;9930;49.240;8.548;2022-12-18T15:51:51;0.20;79.10
19567;DHT22;9930;49.240;8.548;2022-12-18T15:54:19;0.20;79.20
19567;DHT22;9930;49.240;8.548;2022-12-18T15:57:15;0.20;79.30
19567;DHT22;9930;49.240;8.548;2022-12-18T15:59:55;0.10;79.20
19567;DHT22;9930;49.240;8.548;2022-12-18T16:02:23;0.10;79.40
19567;DHT22;9930;49.240;8.548;2022-12-18T16:04:52;0.20;79.50
19567;DHT22;9930;49.240;8.548;2022-12-18T16:07:19;0.10;79.50
19567;DHT22;9930;49.240;8.548;2022-12-18T16:09:45;0.10;79.60
19567;DHT22;9930;49.240;8.548;2022-12-18T16:12:20;0.10;79.70
19567;DHT22;9930;49.240;8.548;2022-12-18T16:14:50;0.10;79.70
19567;DHT22;9930;49.240;8.548;2022-12-18T16:17:16;0.10;79.70
19567;DHT22;9930;49.240;8.548;2022-12-18T16:19:44;0.20;79.90
19567;DHT22;9930;49.240;8.548;2022-12-18T16:22:25;0.20;79.90
19567;DHT22;9930;49.240;8.548;2022-12-18T16:24:54;0.20;79.90
19567;DHT22;9930;49.240;8.548;2022-12-18T16:27:21;0.20;79.90
19567;DHT22;9930;49.240;8.548;2022-12-18T16:29:48;0.30;80.00
19567;DHT22;9930;49.240;8.548;2022-12-18T16:32:19;0.30;80.00
19567;DHT22;9930;49.240;8.548;2022-12-18T16:34:46;0.30;80.00
19567;DHT22;9930;49.240;8.548;2022-12-18T16:37:14;0.30;80.00
19567;DHT22;9930;49.240;8.548;2022-12-18T16:39:44;0.30;80.00
19567;DHT22;9930;49.240;8.548;2022-12-18T16:42:18;0.30;80.00
19567;DHT22;9930;49.240;8.548;2022-12-18T16:44:46;0.40;80.10
19567;DHT22;9930;49.240;8.548;2022-12-18T16:47:15;0.40;80.10
19567;DHT22;9930;49.240;8.548;2022-12-18T16:49:43;0.40;80.10
19567;DHT22;9930;49.240;8.548;2022-12-18T16:52:13;0.40;80.10
19567;DHT22;9930;49.240;8.548;2022-12-18T16:54:41;0.40;80.10
19567;DHT22;9930;49.240;8.548;2022-12-18T16:57:14;0.40;80.10
19567;DHT22;9930;49.240;8.548;2022-12-18T16:59:42;0.50;80.20
19567;DHT22;9930;49.240;8.548;2022-12-18T17:02:20;0.50;80.20
19567;DHT22;9930;49.240;8.548;2022-12-18T17:04:53;0.50;80.10
19567;DHT22;9930;49.240;8.548;2022-12-18T17:07:20;0.50;80.20
19567;DHT22;9930;49.240;8.548;2022-12-18T17:09:52;0.60;80.20
19567;DHT22;9930;49.240;8.548;2022-12-18T17:12:21;0.60;80.10
19567;DHT22;9930;49.240;8.548;2022-12-18T17:14:51;0.60;80.20
19567;DHT22;9930;49.240;8.548;2022-12-18T17:17:17;0.60;80.00
19567;DHT22;9930;49.240;8.548;2022-12-18T17:19:42;0.60;80.00
19567;DHT22;9930;49.240;8.548;2022-12-18T17:22:09;0.60;80.00
19567;DHT22;9930;49.240;8.548;2022-12-18T17:24:35;0.60;79.90
19567;DHT22;9930;49.240;8.548;2022-12-18T17:27:05;0.60;79.90
19567;DHT22;9930;49.240;8.548;2022-12-18T17:29:42;0.60;79.90
19567;DHT22;9930;49.240;8.548;2022-12-18T17:32:08;0.60;79.80
19567;DHT22;9930;49.240;8.548;2022-12-18T17:34:35;0.60;79.80
19567;DHT22;9930;49.240;8.548;2022-12-18T17:37:17;0.60;79.80
19567;DHT22;9930;49.240;8.548;2022-12-18T17:39:45;0.60;79.90
19567;DHT22;9930;49.240;8.548;2022-12-18T17:42:11;0.60;79.90
19567;DHT22;9930;49.240;8.548;2022-12-18T17:44:37;0.60;79.90
19567;DHT22;9930;49.240;8.548;2022-12-18T17:47:03;0.60;79.80
19567;DHT22;9930;49.240;8.548;2022-12-18T17:49:30;0.50;79.90
19567;DHT22;9930;49.240;8.548;2022-12-18T17:51:56;0.50;79.90
19567;DHT22;9930;49.240;8.548;2022-12-18T17:54:27;0.60;80.00
19567;DHT22;9930;49.240;8.548;2022-12-18T17:56:55;0.50;80.00
19567;DHT22;9930;49.240;8.548;2022-12-18T17:59:21;0.50;80.00
19567;DHT22;9930;49.240;8.548;2022-12-18T18:01:47;0.60;80.10
19567;DHT22;9930;49.240;8.548;2022-12-18T18:04:15;0.60;80.10
19567;DHT22;9930;49.240;8.548;2022-12-18T18:06:43;0.60;80.20
19567;DHT22;9930;49.240;8.548;2022-12-18T18:09:12;0.60;80.20
19567;DHT22;9930;49.240;8.548;2022-12-18T18:11:45;0.60;80.90
19567;DHT22;9930;49.240;8.548;2022-12-18T18:14:29;0.60;80.10
19567;DHT22;9930;49.240;8.548;2022-12-18T18:16:55;0.60;80.20
19567;DHT22;9930;49.240;8.548;2022-12-18T18:19:23;0.70;80.20
19567;DHT22;9930;49.240;8.548;2022-12-18T18:21:51;0.60;80.10
19567;DHT22;9930;49.240;8.548;2022-12-18T18:24:20;0.70;80.20
19567;DHT22;9930;49.240;8.548;2022-12-18T18:26:48;0.70;80.10
19567;DHT22;9930;49.240;8.548;2022-12-18T18:29:23;0.70;80.10
19567;DHT22;9930;49.240;8.548;2022-12-18T18:31:52;0.70;80.00
19567;DHT22;9930;49.240;8.548;2022-12-18T18:34:25;0.70;79.90